N76SAM VGHS-VECC
Flight info
| Callsign | N76SAM |
|---|---|
| Flight time | 0h 23m |
| Altitude | 16000 |
| Route | IKOGU2 IKOGU A462 BEMAK BEMAK2A |
| Aircraft | A20N/M-SDE2E3FGHIRWXY/LB1 |
Departure
| Time | 2026-05-08 04:20 |
|---|---|
| Airport | Hazrat Shahjalal International Airport (VGHS) |
Arrival
| Time | 2026-05-08 04:43 |
|---|---|
| Airport | Netaji Subhash Chandra Bose International Airport (VECC) |
| Time | Latitude | Longitude | Altitude | Speed | Heading |
|---|---|---|---|---|---|
| 2026-05-08 04:19 | 23.74562 | 90.28543 | 13064 ft | 295 kts | 236° |
| 2026-05-08 04:20 | 23.73385 | 90.26690 | 14124 ft | 299 kts | 237° |
| 2026-05-08 04:20 | 23.72230 | 90.24800 | 15023 ft | 298 kts | 238° |
| 2026-05-08 04:20 | 23.71084 | 90.22900 | 15541 ft | 307 kts | 238° |
| 2026-05-08 04:20 | 23.69862 | 90.20859 | 15774 ft | 337 kts | 238° |
| 2026-05-08 04:21 | 23.68517 | 90.18614 | 15873 ft | 369 kts | 238° |
| 2026-05-08 04:21 | 23.67054 | 90.16181 | 15917 ft | 399 kts | 238° |
| 2026-05-08 04:21 | 23.65468 | 90.13559 | 15936 ft | 426 kts | 237° |
| 2026-05-08 04:21 | 23.63817 | 90.10845 | 15940 ft | 428 kts | 237° |
| 2026-05-08 04:22 | 23.62170 | 90.08143 | 15938 ft | 427 kts | 238° |
| 2026-05-08 04:22 | 23.60556 | 90.05413 | 15943 ft | 428 kts | 238° |
| 2026-05-08 04:22 | 23.58970 | 90.02663 | 15938 ft | 428 kts | 239° |
| 2026-05-08 04:22 | 23.57402 | 89.99906 | 15939 ft | 428 kts | 239° |
| 2026-05-08 04:23 | 23.55841 | 89.97140 | 15944 ft | 427 kts | 239° |
| 2026-05-08 04:23 | 23.54289 | 89.94377 | 15945 ft | 428 kts | 239° |
| 2026-05-08 04:23 | 23.52739 | 89.91608 | 15953 ft | 429 kts | 239° |
| 2026-05-08 04:23 | 23.51188 | 89.88832 | 15952 ft | 428 kts | 239° |
| 2026-05-08 04:24 | 23.49661 | 89.86094 | 15947 ft | 427 kts | 239° |
| 2026-05-08 04:24 | 23.48117 | 89.83326 | 15947 ft | 428 kts | 239° |
| 2026-05-08 04:24 | 23.46570 | 89.80554 | 15940 ft | 428 kts | 239° |
| 2026-05-08 04:24 | 23.45023 | 89.77780 | 15949 ft | 428 kts | 239° |
| 2026-05-08 04:25 | 23.43479 | 89.75013 | 15946 ft | 428 kts | 239° |
| 2026-05-08 04:25 | 23.41933 | 89.72243 | 15951 ft | 428 kts | 239° |
| 2026-05-08 04:25 | 23.40386 | 89.69470 | 15946 ft | 428 kts | 239° |
| 2026-05-08 04:25 | 23.38823 | 89.66707 | 15950 ft | 429 kts | 239° |
| 2026-05-08 04:26 | 23.37230 | 89.63967 | 15943 ft | 428 kts | 238° |
| 2026-05-08 04:26 | 23.35623 | 89.61243 | 15944 ft | 428 kts | 238° |
| 2026-05-08 04:26 | 23.34008 | 89.58524 | 15910 ft | 427 kts | 238° |
| 2026-05-08 04:26 | 23.32410 | 89.55846 | 15516 ft | 425 kts | 238° |
| 2026-05-08 04:27 | 23.30795 | 89.53145 | 14723 ft | 429 kts | 238° |
| 2026-05-08 04:27 | 23.29180 | 89.50444 | 14302 ft | 422 kts | 238° |
| 2026-05-08 04:27 | 23.27578 | 89.47771 | 14120 ft | 422 kts | 238° |
| 2026-05-08 04:27 | 23.25975 | 89.45097 | 14034 ft | 422 kts | 238° |
| 2026-05-08 04:28 | 23.24373 | 89.42424 | 13989 ft | 422 kts | 238° |
| 2026-05-08 04:28 | 23.22768 | 89.39750 | 13971 ft | 422 kts | 238° |
| 2026-05-08 04:28 | 23.21158 | 89.37067 | 13965 ft | 423 kts | 238° |
| 2026-05-08 04:28 | 23.19546 | 89.34383 | 13957 ft | 423 kts | 238° |
| 2026-05-08 04:29 | 23.17938 | 89.31707 | 13955 ft | 423 kts | 238° |
| 2026-05-08 04:29 | 23.16329 | 89.29030 | 13954 ft | 423 kts | 238° |
| 2026-05-08 04:29 | 23.14719 | 89.26351 | 13951 ft | 423 kts | 238° |
| 2026-05-08 04:29 | 23.13110 | 89.23673 | 13947 ft | 423 kts | 238° |
| 2026-05-08 04:30 | 23.11498 | 89.20996 | 13953 ft | 423 kts | 238° |
| 2026-05-08 04:30 | 23.09887 | 89.18319 | 13953 ft | 423 kts | 238° |
| 2026-05-08 04:30 | 23.08276 | 89.15642 | 13946 ft | 423 kts | 238° |
| 2026-05-08 04:30 | 23.06685 | 89.13000 | 13941 ft | 423 kts | 238° |
| 2026-05-08 04:31 | 23.05051 | 89.10287 | 13948 ft | 424 kts | 238° |
| 2026-05-08 04:31 | 23.03457 | 89.07644 | 13949 ft | 424 kts | 238° |
| 2026-05-08 04:31 | 23.01841 | 89.04966 | 13940 ft | 424 kts | 238° |
| 2026-05-08 04:31 | 23.00225 | 89.02287 | 13936 ft | 424 kts | 238° |
| 2026-05-08 04:32 | 22.98609 | 88.99608 | 13933 ft | 425 kts | 238° |
| 2026-05-08 04:32 | 22.97003 | 88.96948 | 13933 ft | 407 kts | 238° |
| 2026-05-08 04:32 | 22.95525 | 88.94509 | 13929 ft | 361 kts | 238° |
| 2026-05-08 04:32 | 22.94235 | 88.92406 | 13932 ft | 318 kts | 238° |
| 2026-05-08 04:33 | 22.93031 | 88.90482 | 13929 ft | 303 kts | 237° |
| 2026-05-08 04:33 | 22.91837 | 88.88594 | 13931 ft | 305 kts | 237° |
| 2026-05-08 04:33 | 22.90630 | 88.86702 | 13925 ft | 305 kts | 237° |
| 2026-05-08 04:33 | 22.89419 | 88.84819 | 13925 ft | 304 kts | 237° |
| 2026-05-08 04:34 | 22.88201 | 88.82937 | 13927 ft | 305 kts | 237° |
| 2026-05-08 04:34 | 22.86979 | 88.81056 | 13919 ft | 305 kts | 237° |
| 2026-05-08 04:34 | 22.85767 | 88.79196 | 13923 ft | 305 kts | 237° |
| 2026-05-08 04:34 | 22.84654 | 88.77247 | 13923 ft | 304 kts | 244° |
| 2026-05-08 04:35 | 22.83706 | 88.75199 | 13926 ft | 304 kts | 246° |
| 2026-05-08 04:35 | 22.82804 | 88.73124 | 13821 ft | 303 kts | 246° |
| 2026-05-08 04:35 | 22.81907 | 88.71060 | 13331 ft | 302 kts | 246° |
| 2026-05-08 04:35 | 22.80989 | 88.69015 | 12761 ft | 299 kts | 245° |
| 2026-05-08 04:36 | 22.80460 | 88.67683 | 12011 ft | 286 kts | 258° |
| 2026-05-08 04:36 | 22.80474 | 88.65551 | 10635 ft | 284 kts | 287° |
| 2026-05-08 04:36 | 22.81204 | 88.63595 | 9469 ft | 277 kts | 301° |
| 2026-05-08 04:36 | 22.82683 | 88.61378 | 7779 ft | 273 kts | 309° |
| 2026-05-08 04:37 | 22.83497 | 88.60299 | 6945 ft | 273 kts | 309° |
| 2026-05-08 04:37 | 22.84706 | 88.58709 | 5706 ft | 273 kts | 308° |
| 2026-05-08 04:37 | 22.85843 | 88.57071 | 4553 ft | 270 kts | 303° |
| 2026-05-08 04:37 | 22.86834 | 88.55357 | 3415 ft | 266 kts | 298° |
| 2026-05-08 04:38 | 22.87605 | 88.53554 | 2597 ft | 256 kts | 279° |
| 2026-05-08 04:38 | 22.87431 | 88.51790 | 2397 ft | 223 kts | 245° |
| 2026-05-08 04:38 | 22.86688 | 88.50375 | 2306 ft | 209 kts | 233° |
| 2026-05-08 04:38 | 22.85811 | 88.49215 | 2159 ft | 196 kts | 226° |
| 2026-05-08 04:39 | 22.84845 | 88.48225 | 2039 ft | 187 kts | 219° |
| 2026-05-08 04:39 | 22.83731 | 88.47534 | 2009 ft | 187 kts | 194° |
| 2026-05-08 04:39 | 22.82459 | 88.47201 | 1980 ft | 188 kts | 193° |
| 2026-05-08 04:39 | 22.81198 | 88.46874 | 1950 ft | 186 kts | 193° |
| 2026-05-08 04:40 | 22.79950 | 88.46570 | 1949 ft | 179 kts | 191° |
| 2026-05-08 04:40 | 22.78721 | 88.46342 | 1939 ft | 180 kts | 188° |
| 2026-05-08 04:40 | 22.77554 | 88.46176 | 1939 ft | 161 kts | 186° |
| 2026-05-08 04:40 | 22.76445 | 88.46048 | 1843 ft | 155 kts | 185° |
| 2026-05-08 04:41 | 22.75430 | 88.45937 | 1648 ft | 142 kts | 186° |
| 2026-05-08 04:41 | 22.74433 | 88.45828 | 1428 ft | 145 kts | 186° |
| 2026-05-08 04:41 | 22.73438 | 88.45716 | 1251 ft | 144 kts | 186° |
| 2026-05-08 04:41 | 22.72437 | 88.45602 | 1056 ft | 144 kts | 186° |
| 2026-05-08 04:42 | 22.71453 | 88.45485 | 882 ft | 144 kts | 186° |
| 2026-05-08 04:42 | 22.70453 | 88.45366 | 708 ft | 145 kts | 186° |
| 2026-05-08 04:42 | 22.69447 | 88.45245 | 524 ft | 145 kts | 186° |
| 2026-05-08 04:42 | 22.68424 | 88.45122 | 362 ft | 155 kts | 186° |
| 2026-05-08 04:43 | 22.67383 | 88.44994 | 90 ft | 143 kts | 186° |
| 2026-05-08 04:43 | 22.66492 | 88.44898 | 25 ft | 113 kts | 186° |
| 2026-05-08 04:43 | 22.66017 | 88.44843 | 28 ft | 52 kts | 186° |
| 2026-05-08 04:43 | 22.65728 | 88.44808 | 29 ft | 23 kts | 186° |
| 2026-05-08 04:44 | 22.65659 | 88.44790 | 30 ft | 11 kts | 220° |
| 2026-05-08 04:44 | 22.65652 | 88.44661 | 29 ft | 24 kts | 276° |
| 2026-05-08 04:44 | 22.65635 | 88.44487 | 27 ft | 16 kts | 286° |
| 2026-05-08 04:44 | 22.65655 | 88.44390 | 27 ft | 10 kts | 269° |
| 2026-05-08 04:45 | 22.65655 | 88.44386 | 27 ft | 0 kts | 269° |